Time;durP1;ratioP1;P1;durP2;ratioP2;P2;SDS_P1;SDS_P2;PMS_P1;PMS_P2;Temp;Humidity;BMP_temperature;BMP_pressure;BME280_temperature;BME280_humidity;BME280_pressure;Samples;Min_cycle;Max_cycle;Signal;HPM_P1;HPM_P2
2022/07/09 00:01:09;;;;;;;2.70;2.50;;;;;;;16.29;75.09;97642.34;5132816;27;20204;-63
2022/07/09 00:03:36;;;;;;;3.97;2.60;;;;;;;16.36;73.84;97639.91;5133841;27;20207;-61
2022/07/09 00:06:03;;;;;;;2.83;2.60;;;;;;;16.26;75.25;97647.16;5132955;27;20652;-61
2022/07/09 00:08:33;;;;;;;4.93;2.43;;;;;;;16.24;74.96;97641.13;5132874;27;20208;-62
2022/07/09 00:11:00;;;;;;;2.63;2.43;;;;;;;16.14;76.25;97646.56;5133225;27;20201;-61
2022/07/09 00:13:28;;;;;;;3.90;2.10;;;;;;;16.11;76.33;97641.53;5132326;27;20291;-61
2022/07/09 00:15:55;;;;;;;3.87;2.43;;;;;;;16.11;75.04;97651.34;5132967;27;20550;-57
2022/07/09 00:18:26;;;;;;;4.33;2.53;;;;;;;16.06;77.45;97648.28;5131927;27;20633;-59
2022/07/09 00:20:55;;;;;;;2.93;2.60;;;;;;;16.01;76.07;97640.78;5132739;27;20220;-60
2022/07/09 00:23:21;;;;;;;3.87;2.70;;;;;;;16.01;76.86;97640.78;5132913;27;20222;-60
2022/07/09 00:25:50;;;;;;;3.33;2.30;;;;;;;16.03;76.72;97640.59;5132853;27;20228;-60
2022/07/09 00:28:16;;;;;;;3.00;2.40;;;;;;;16.08;75.24;97641.00;5131798;27;20220;-59
2022/07/09 00:30:43;;;;;;;2.50;2.30;;;;;;;16.08;74.74;97647.19;5132105;27;20204;-61
2022/07/09 00:33:10;;;;;;;2.70;2.40;;;;;;;16.12;74.35;97642.38;5132534;27;20209;-61
2022/07/09 00:35:41;;;;;;;4.73;3.00;;;;;;;16.13;73.67;97639.53;5130983;27;20196;-61
2022/07/09 00:38:07;;;;;;;3.53;2.80;;;;;;;16.16;74.07;97643.72;5132566;27;20181;-59
2022/07/09 00:40:37;;;;;;;3.93;2.20;;;;;;;16.21;72.85;97642.28;5132256;27;20200;-60
2022/07/09 00:43:04;;;;;;;2.33;2.13;;;;;;;16.10;76.17;97649.66;5131120;27;20236;-59
2022/07/09 00:45:32;;;;;;;3.43;2.20;;;;;;;16.01;75.23;97642.59;5132129;27;20236;-59
2022/07/09 00:48:00;;;;;;;3.33;2.40;;;;;;;16.01;75.08;97634.59;5130856;27;20216;-60
2022/07/09 00:50:29;;;;;;;2.43;2.20;;;;;;;15.94;75.94;97629.84;5132388;27;20228;-59
2022/07/09 00:53:04;;;;;;;5.43;2.65;;;;;;;15.86;77.33;97632.47;5132056;27;20208;-60
2022/07/09 00:55:30;;;;;;;4.03;2.10;;;;;;;15.92;75.75;97625.66;5132032;27;20656;-58
2022/07/09 00:58:00;;;;;;;3.65;2.17;;;;;;;15.89;75.09;97624.16;5132103;27;20227;-59
2022/07/09 01:00:31;;;;;;;3.97;2.27;;;;;;;15.90;74.74;97627.66;5131688;27;20207;-58
2022/07/09 01:02:58;;;;;;;2.53;2.33;;;;;;;15.82;76.44;97624.91;5132482;27;20261;-59
2022/07/09 01:05:24;;;;;;;5.93;2.63;;;;;;;15.85;76.69;97617.44;5132601;27;20552;-58
2022/07/09 01:07:51;;;;;;;3.08;2.30;;;;;;;15.90;74.66;97609.81;5133067;27;20545;-59
2022/07/09 01:10:19;;;;;;;2.80;2.00;;;;;;;15.91;73.64;97619.47;5132073;28;20204;-59
2022/07/09 01:12:46;;;;;;;2.37;2.17;;;;;;;15.71;76.97;97614.44;5132806;28;20208;-59
2022/07/09 01:15:12;;;;;;;2.47;1.80;;;;;;;15.63;76.72;97606.34;5132314;28;20231;-59
2022/07/09 01:17:41;;;;;;;4.67;2.40;;;;;;;15.65;75.81;97602.56;5132734;27;20192;-59
2022/07/09 01:20:09;;;;;;;3.77;2.07;;;;;;;15.57;77.42;97606.97;5130320;27;20216;-59
2022/07/09 01:22:40;;;;;;;3.30;2.20;;;;;;;15.56;78.25;97595.47;5132149;28;20681;-59
2022/07/09 01:25:09;;;;;;;4.10;2.17;;;;;;;15.45;78.04;97595.63;5132718;27;20253;-59
2022/07/09 01:27:38;;;;;;;2.67;2.03;;;;;;;15.46;78.81;97602.66;5132334;28;20224;-59
2022/07/09 01:30:06;;;;;;;3.40;2.00;;;;;;;15.46;79.22;97597.31;5133073;28;20200;-60
2022/07/09 01:32:34;;;;;;;3.37;2.23;;;;;;;15.38;78.27;97599.88;5132715;27;20192;-61
2022/07/09 01:35:02;;;;;;;5.20;2.70;;;;;;;15.37;78.98;97592.91;5132186;28;20287;-61
2022/07/09 01:37:30;;;;;;;3.13;2.47;;;;;;;15.43;77.99;97590.47;5132552;28;20193;-61
2022/07/09 01:39:58;;;;;;;1.87;1.77;;;;;;;15.35;78.07;97592.19;5157392;28;20200;-66
2022/07/09 01:42:25;;;;;;;3.00;2.47;;;;;;;15.27;78.48;97592.94;5157900;28;20172;-61
2022/07/09 01:44:53;;;;;;;3.53;2.10;;;;;;;15.26;78.31;97591.28;5153198;27;20188;-61
2022/07/09 01:47:20;;;;;;;4.43;2.40;;;;;;;15.23;80.10;97578.22;5134404;28;20235;-58
2022/07/09 01:49:48;;;;;;;3.43;2.40;;;;;;;15.16;79.82;97587.81;5131916;28;20197;-57
2022/07/09 01:52:15;;;;;;;2.87;2.17;;;;;;;15.14;80.82;97584.47;5133060;28;20212;-61
2022/07/09 01:54:42;;;;;;;2.40;2.20;;;;;;;15.19;80.11;97584.03;5132912;28;20204;-61
2022/07/09 01:57:10;;;;;;;2.37;1.97;;;;;;;15.27;77.47;97592.09;5132703;28;20200;-60
2022/07/09 01:59:38;;;;;;;2.17;1.90;;;;;;;15.08;80.28;97589.56;5134731;27;20196;-61
2022/07/09 02:02:06;;;;;;;3.70;2.17;;;;;;;15.18;78.16;97585.84;5136186;27;20527;-60
2022/07/09 02:04:32;;;;;;;3.47;2.20;;;;;;;15.19;77.42;97584.03;5136022;27;20654;-59
2022/07/09 02:06:59;;;;;;;2.73;2.07;;;;;;;15.19;76.45;97584.88;5135518;27;20216;-59
2022/07/09 02:09:26;;;;;;;2.47;2.10;;;;;;;15.06;79.61;97581.69;5135635;27;20274;-60
2022/07/09 02:11:52;;;;;;;2.83;2.20;;;;;;;15.09;78.81;97577.91;5135647;27;20680;-59
2022/07/09 02:14:21;;;;;;;6.77;2.33;;;;;;;15.02;79.56;97584.81;5135742;27;20200;-59
2022/07/09 02:16:49;;;;;;;3.77;2.00;;;;;;;15.04;79.68;97569.50;5135250;27;20196;-59
2022/07/09 02:19:16;;;;;;;3.07;2.07;;;;;;;15.04;78.93;97564.19;5135662;27;20660;-60
2022/07/09 02:21:43;;;;;;;2.40;2.20;;;;;;;15.03;78.17;97562.50;5135394;27;20200;-60
2022/07/09 02:24:10;;;;;;;5.07;2.37;;;;;;;14.95;80.70;97566.75;5136083;27;20598;-59
2022/07/09 02:26:37;;;;;;;2.40;2.03;;;;;;;14.99;77.60;97561.13;5135882;27;20204;-59
2022/07/09 02:29:05;;;;;;;2.53;2.10;;;;;;;14.91;80.43;97557.38;5136020;27;20243;-60
2022/07/09 02:31:33;;;;;;;3.60;2.10;;;;;;;14.81;81.52;97571.72;5135709;27;20215;-59
2022/07/09 02:34:02;;;;;;;2.27;2.03;;;;;;;14.81;80.11;97572.56;5135458;27;20200;-58
2022/07/09 02:36:28;;;;;;;3.33;2.40;;;;;;;14.79;78.72;97574.53;5135355;27;20676;-58
2022/07/09 02:38:57;;;;;;;2.73;2.30;;;;;;;14.73;82.13;97572.47;5136019;27;20189;-59
2022/07/09 02:41:24;;;;;;;3.33;1.97;;;;;;;14.66;80.69;97581.19;5135652;27;20196;-59
2022/07/09 02:43:50;;;;;;;4.57;2.30;;;;;;;14.61;82.32;97583.44;5135338;27;20319;-60
2022/07/09 02:46:19;;;;;;;3.73;2.40;;;;;;;14.58;82.64;97581.91;5134960;27;20235;-60
2022/07/09 02:48:51;;;;;;;2.73;2.07;;;;;;;14.61;83.02;97578.09;5134850;27;20303;-59
2022/07/09 02:51:19;;;;;;;2.50;2.00;;;;;;;14.59;82.27;97578.25;5135585;27;20583;-59
2022/07/09 02:53:46;;;;;;;2.30;1.90;;;;;;;14.60;81.35;97571.94;5135906;27;20234;-58
2022/07/09 02:56:13;;;;;;;2.33;2.17;;;;;;;14.59;81.89;97577.41;5133461;27;20275;-60
2022/07/09 02:58:40;;;;;;;2.40;2.20;;;;;;;14.55;81.56;97582.19;5135775;27;20261;-63
2022/07/09 03:01:07;;;;;;;1.97;1.77;;;;;;;14.58;80.67;97576.56;5135358;27;20336;-60
2022/07/09 03:03:37;;;;;;;2.70;1.80;;;;;;;14.57;81.75;97579.38;5134891;27;20228;-59
2022/07/09 03:06:05;;;;;;;2.50;2.10;;;;;;;14.53;82.58;97580.63;5135406;27;20212;-60
2022/07/09 03:08:32;;;;;;;5.00;2.60;;;;;;;14.50;81.49;97578.28;5135623;27;20546;-61
2022/07/09 03:10:59;;;;;;;5.73;2.60;;;;;;;14.49;81.11;97572.09;5134159;27;20209;-60
2022/07/09 03:13:25;;;;;;;2.57;2.37;;;;;;;14.44;82.07;97577.88;5134929;27;20254;-60
2022/07/09 03:15:52;;;;;;;3.10;2.10;;;;;;;14.42;81.84;97579.00;5135029;27;20295;-60
2022/07/09 03:18:19;;;;;;;2.40;2.20;;;;;;;14.48;80.90;97577.59;5133810;27;20220;-59
2022/07/09 03:20:48;;;;;;;3.60;2.37;;;;;;;14.46;80.06;97577.72;5133198;27;20215;-60
2022/07/09 03:23:19;;;;;;;2.50;2.30;;;;;;;14.42;81.21;97577.16;5134077;27;20602;-60
2022/07/09 03:25:47;;;;;;;2.83;2.00;;;;;;;14.34;81.88;97584.22;5135154;27;20193;-60
2022/07/09 03:28:15;;;;;;;4.97;2.50;;;;;;;14.40;79.79;97587.13;5134839;27;20266;-60
2022/07/09 03:30:41;;;;;;;5.00;2.70;;;;;;;14.34;81.00;97577.06;5134926;27;20208;-61
2022/07/09 03:33:08;;;;;;;3.97;2.40;;;;;;;14.28;82.24;97576.75;5134818;27;20220;-60
2022/07/09 03:35:36;;;;;;;2.77;2.47;;;;;;;14.27;82.42;97578.59;5134615;27;20229;-60
2022/07/09 03:38:03;;;;;;;5.43;2.20;;;;;;;14.31;81.16;97585.28;5135329;27;20200;-60
2022/07/09 03:40:31;;;;;;;2.03;1.83;;;;;;;14.35;80.05;97578.72;5134571;27;20515;-60
2022/07/09 03:42:59;;;;;;;2.37;2.17;;;;;;;14.23;82.31;97581.69;5133818;27;20683;-60
2022/07/09 03:45:25;;;;;;;3.27;2.17;;;;;;;14.21;81.43;97579.16;5134421;27;20201;-59
2022/07/09 03:47:52;;;;;;;5.83;2.83;;;;;;;14.13;82.16;97583.53;5133723;27;20220;-60
2022/07/09 03:50:20;;;;;;;3.57;2.50;;;;;;;14.09;84.29;97574.13;5134576;27;20203;-61
2022/07/09 03:52:48;;;;;;;5.43;2.60;;;;;;;14.10;84.75;97573.97;5133505;27;20213;-61
2022/07/09 03:55:14;;;;;;;4.27;2.70;;;;;;;14.13;82.74;97575.53;5154426;27;20216;-60
2022/07/09 03:57:42;;;;;;;3.57;2.50;;;;;;;14.09;83.98;97574.97;5159955;27;20184;-60
2022/07/09 04:00:10;;;;;;;4.67;2.50;;;;;;;14.12;83.63;97581.84;5147137;27;20188;-59
2022/07/09 04:02:40;;;;;;;3.37;2.97;;;;;;;14.12;83.43;97576.50;5147224;27;20207;-60
2022/07/09 04:05:09;;;;;;;4.87;3.80;;;;;;;14.15;84.16;97578.88;5153271;27;20192;-60
2022/07/09 04:07:36;;;;;;;3.30;2.07;;;;;;;14.14;83.17;97585.19;5147233;27;20229;-61
2022/07/09 04:10:03;;;;;;;3.67;2.13;;;;;;;14.18;82.66;97581.25;5146085;27;20200;-59
2022/07/09 04:12:29;;;;;;;2.77;2.20;;;;;;;14.19;83.08;97574.97;5140373;27;20219;-60
2022/07/09 04:14:57;;;;;;;3.00;2.77;;;;;;;14.23;82.11;97585.19;5152531;27;20176;-61
2022/07/09 04:17:24;;;;;;;5.63;4.10;;;;;;;14.24;83.40;97584.19;5157996;27;20214;-59
2022/07/09 04:19:52;;;;;;;5.30;3.37;;;;;;;14.30;84.42;97585.44;5159569;27;20185;-59
2022/07/09 04:22:19;;;;;;;3.23;2.73;;;;;;;14.38;83.12;97594.41;5159618;27;20176;-59
2022/07/09 04:24:46;;;;;;;3.67;2.50;;;;;;;14.81;82.69;97590.34;5158171;27;20188;-59
2022/07/09 04:27:12;;;;;;;6.00;2.33;;;;;;;14.84;82.54;97588.22;5156178;27;20205;-60
2022/07/09 04:29:39;;;;;;;3.80;2.20;;;;;;;14.90;82.45;97590.34;5156720;27;20230;-60
2022/07/09 04:32:08;;;;;;;2.60;2.40;;;;;;;15.15;82.94;97591.47;5157025;27;20220;-59
2022/07/09 04:34:34;;;;;;;2.93;2.50;;;;;;;15.41;80.60;97591.59;5157496;27;20204;-59
2022/07/09 04:37:01;;;;;;;4.43;2.30;;;;;;;15.48;80.78;97591.84;5158787;27;20228;-59
2022/07/09 04:39:28;;;;;;;2.70;2.40;;;;;;;16.00;79.26;97590.22;5142837;27;20188;-59
2022/07/09 04:41:55;;;;;;;3.67;2.50;;;;;;;16.14;77.91;97595.84;5134239;27;20200;-59
2022/07/09 04:44:22;;;;;;;4.37;2.53;;;;;;;16.22;75.45;97584.41;5139446;27;20224;-59
2022/07/09 04:46:49;;;;;;;3.57;2.23;;;;;;;16.23;76.91;97586.91;5155211;27;20200;-60
2022/07/09 04:49:16;;;;;;;2.93;2.43;;;;;;;16.31;76.23;97589.63;5146315;27;20305;-59
2022/07/09 04:51:43;;;;;;;2.70;2.43;;;;;;;16.56;75.02;97581.81;5138794;27;20204;-59
2022/07/09 04:54:12;;;;;;;5.60;2.77;;;;;;;16.65;72.96;97589.72;5139729;27;20203;-60
2022/07/09 04:56:40;;;;;;;5.27;2.30;;;;;;;16.85;72.24;97591.19;5141580;27;20223;-59
2022/07/09 04:59:07;;;;;;;3.43;2.50;;;;;;;16.93;70.68;97601.91;5139763;27;20208;-62
2022/07/09 05:01:34;;;;;;;5.43;2.40;;;;;;;17.01;69.99;97592.25;5136662;27;20204;-61
2022/07/09 05:04:01;;;;;;;3.37;2.10;;;;;;;16.89;69.36;97597.91;5151166;27;20200;-60
2022/07/09 05:06:30;;;;;;;2.83;2.05;;;;;;;16.84;68.99;97602.03;5155796;27;20176;-61
2022/07/09 05:08:57;;;;;;;4.50;2.27;;;;;;;16.59;71.31;97597.53;5158168;27;20227;-64
2022/07/09 05:11:24;;;;;;;3.23;2.30;;;;;;;16.75;67.27;97595.81;5151599;27;20255;-62
2022/07/09 05:13:51;;;;;;;3.23;2.30;;;;;;;16.74;68.73;97601.31;5133063;28;20567;-61
2022/07/09 05:16:18;;;;;;;3.35;2.20;;;;;;;16.90;69.01;97604.91;5133030;28;20234;-61
2022/07/09 05:18:45;;;;;;;5.80;2.77;;;;;;;16.96;70.59;97606.13;5132373;28;20641;-61
2022/07/09 05:21:12;;;;;;;5.10;2.70;;;;;;;17.16;70.29;97599.50;5133222;27;20694;-62
2022/07/09 05:23:40;;;;;;;3.53;2.20;;;;;;;17.41;65.12;97600.44;5133416;28;20612;-61
2022/07/09 05:26:06;;;;;;;2.80;1.63;;;;;;;17.65;64.22;97597.88;5133546;28;20204;-61
2022/07/09 05:28:34;;;;;;;6.18;2.03;;;;;;;17.86;62.79;97606.28;5137998;28;20212;-58
2022/07/09 05:31:01;;;;;;;4.18;2.22;;;;;;;18.07;62.97;97602.25;5156018;27;20177;-60
2022/07/09 05:33:29;;;;;;;2.92;1.88;;;;;;;18.23;61.61;97604.97;5155656;27;20193;-60
2022/07/09 05:35:57;;;;;;;4.20;1.85;;;;;;;18.44;61.84;97605.28;5160503;27;20189;-59
2022/07/09 05:38:24;;;;;;;2.10;1.88;;;;;;;18.51;59.57;97611.69;5161347;27;20196;-61
2022/07/09 05:40:52;;;;;;;7.03;2.40;;;;;;;18.71;59.67;97602.28;5162483;27;20187;-60
2022/07/09 05:43:19;;;;;;;3.08;2.10;;;;;;;18.86;58.09;97611.28;5153258;27;20231;-61
2022/07/09 05:45:45;;;;;;;4.63;2.10;;;;;;;19.01;58.42;97608.75;5137067;27;20200;-60
2022/07/09 05:48:12;;;;;;;3.00;1.83;;;;;;;19.21;58.08;97607.31;5137714;27;20687;-60
2022/07/09 05:50:40;;;;;;;7.75;1.98;;;;;;;19.17;58.38;97605.16;5137685;27;20680;-58
2022/07/09 05:53:09;;;;;;;3.92;2.10;;;;;;;19.35;57.18;97609.28;5136544;27;20618;-54
2022/07/09 05:55:35;;;;;;;3.38;1.98;;;;;;;19.49;57.18;97607.72;5136809;27;20243;-55
2022/07/09 05:58:04;;;;;;;2.80;2.00;;;;;;;19.68;55.56;97610.00;5137041;27;20302;-58
2022/07/09 06:00:30;;;;;;;3.50;1.67;;;;;;;19.86;55.81;97615.09;5135529;27;20216;-59
2022/07/09 06:02:57;;;;;;;4.85;1.95;;;;;;;19.95;56.89;97608.63;5147636;27;20197;-59
2022/07/09 06:05:23;;;;;;;2.95;1.90;;;;;;;19.94;55.59;97615.03;5151922;27;20202;-60
2022/07/09 06:07:50;;;;;;;4.32;2.35;;;;;;;20.28;55.29;97609.28;5160713;27;20258;-55
2022/07/09 06:10:17;;;;;;;3.20;1.95;;;;;;;20.40;54.69;97607.84;5161474;27;20209;-55
2022/07/09 06:12:43;;;;;;;3.75;2.00;;;;;;;20.65;53.96;97605.78;5144265;27;20214;-59
2022/07/09 06:15:12;;;;;;;5.50;2.45;;;;;;;20.72;53.24;97612.09;5134707;27;20560;-56
2022/07/09 06:17:39;;;;;;;4.05;2.10;;;;;;;20.99;52.70;97607.94;5137229;27;20201;-57
2022/07/09 06:20:08;;;;;;;4.38;2.10;;;;;;;20.98;52.99;97617.00;5136060;27;20220;-57
2022/07/09 06:22:35;;;;;;;2.47;1.83;;;;;;;21.17;50.92;97611.97;5135695;27;20232;-57
2022/07/09 06:25:04;;;;;;;5.45;2.60;;;;;;;21.25;51.77;97619.09;5135548;27;20228;-56
2022/07/09 06:27:31;;;;;;;7.10;2.80;;;;;;;21.15;52.35;97618.56;5135546;27;21448;-56
2022/07/09 06:29:57;;;;;;;3.40;1.77;;;;;;;21.37;50.22;97622.97;5134750;27;20223;-56
2022/07/09 06:32:25;;;;;;;5.57;2.00;;;;;;;21.52;51.77;97615.72;5135855;27;20548;-57
2022/07/09 06:34:53;;;;;;;2.47;1.60;;;;;;;21.58;51.31;97619.53;5134484;27;20196;-56
2022/07/09 06:37:21;;;;;;;2.78;1.83;;;;;;;21.58;52.12;97620.34;5135180;27;20207;-56
2022/07/09 06:39:48;;;;;;;4.68;1.98;;;;;;;22.00;51.42;97616.13;5135268;27;20201;-55
2022/07/09 06:42:16;;;;;;;4.68;2.15;;;;;;;22.21;51.96;97616.13;5134711;27;20292;-56
2022/07/09 06:44:43;;;;;;;5.68;1.92;;;;;;;22.05;51.06;97617.22;5134835;27;20707;-56
2022/07/09 06:47:11;;;;;;;2.38;1.70;;;;;;;22.41;50.93;97619.00;5134989;27;20224;-56
2022/07/09 06:49:39;;;;;;;5.07;2.15;;;;;;;22.41;49.69;97619.84;5135068;27;20216;-56
2022/07/09 06:52:07;;;;;;;6.60;2.10;;;;;;;22.38;49.95;97617.53;5135291;27;20215;-56
2022/07/09 06:54:35;;;;;;;2.58;1.75;;;;;;;;;;5135111;27;20197;-56
2022/07/09 06:57:04;;;;;;;4.97;2.40;;;;;;;22.61;48.95;97618.16;5135105;27;20323;-55
2022/07/09 06:59:32;;;;;;;6.65;2.03;;;;;;;23.05;49.86;97611.66;5135676;27;20200;-56
2022/07/09 07:01:59;;;;;;;2.53;1.85;;;;;;;22.89;47.41;97620.88;5134096;27;20521;-56
2022/07/09 07:04:26;;;;;;;6.35;2.40;;;;;;;23.41;47.90;97625.84;5134693;27;20231;-56
2022/07/09 07:06:54;;;;;;;4.75;1.92;;;;;;;23.66;47.69;97623.47;5134868;27;20204;-56
2022/07/09 07:09:22;;;;;;;2.38;2.17;;;;;;;23.60;45.96;97625.06;5134594;27;20231;-56
2022/07/09 07:11:48;;;;;;;3.45;2.17;;;;;;;23.48;46.12;97612.38;5135052;27;20200;-56
2022/07/09 07:14:15;;;;;;;2.40;1.83;;;;;;;23.73;46.75;97617.06;5134642;27;20209;-55
2022/07/09 07:16:42;;;;;;;3.20;2.20;;;;;;;23.75;45.51;97617.66;5134521;27;20211;-56
2022/07/09 07:19:09;;;;;;;4.90;2.13;;;;;;;24.05;45.79;97609.25;5134499;27;20297;-57
2022/07/09 07:21:37;;;;;;;4.10;1.67;;;;;;;23.95;44.90;97606.09;5134504;27;20206;-55
2022/07/09 07:24:06;;;;;;;4.18;2.13;;;;;;;24.20;47.35;97605.34;5134369;27;20313;-55
2022/07/09 07:26:33;;;;;;;4.03;2.10;;;;;;;24.01;45.18;97603.41;5133821;27;20269;-55
2022/07/09 07:29:00;;;;;;;3.25;2.03;;;;;;;23.90;45.27;97605.88;5134155;27;20240;-56
2022/07/09 07:31:26;;;;;;;3.40;2.15;;;;;;;24.34;45.76;97600.78;5134106;27;20232;-56
2022/07/09 07:33:53;;;;;;;3.17;2.13;;;;;;;24.20;45.15;97601.81;5133591;27;20260;-57
2022/07/09 07:36:22;;;;;;;2.95;1.80;;;;;;;24.30;45.99;97593.31;5134009;27;20196;-56
2022/07/09 07:38:48;;;;;;;2.92;1.55;;;;;;;24.57;46.07;97595.00;5134885;27;20275;-56
2022/07/09 07:41:18;;;;;;;3.10;1.70;;;;;;;24.68;43.65;97603.31;5134183;27;20196;-57
2022/07/09 07:43:46;;;;;;;3.88;2.08;;;;;;;24.99;44.21;97593.72;5133186;27;20572;-56
2022/07/09 07:46:13;;;;;;;3.30;1.90;;;;;;;25.19;45.46;97594.50;5133674;27;20228;-56
2022/07/09 07:48:41;;;;;;;4.38;2.05;;;;;;;25.30;43.41;97585.75;5133357;27;20220;-56
2022/07/09 07:51:12;;;;;;;3.55;2.08;;;;;;;25.21;43.95;97581.63;5133464;27;20283;-56
2022/07/09 07:53:39;;;;;;;3.50;1.98;;;;;;;25.23;43.96;97584.94;5133804;27;20223;-56
2022/07/09 07:56:07;;;;;;;4.00;1.92;;;;;;;25.34;44.61;97575.31;5132795;27;20367;-55
2022/07/09 07:58:36;;;;;;;4.75;1.80;;;;;;;25.21;43.08;97576.19;5133422;27;20289;-56
2022/07/09 08:01:02;;;;;;;2.45;1.52;;;;;;;25.31;45.08;97565.75;5133413;27;20212;-55
2022/07/09 08:03:29;;;;;;;2.10;1.58;;;;;;;25.52;43.50;97570.91;5132361;27;20192;-56
2022/07/09 08:05:56;;;;;;;2.67;1.52;;;;;;;25.42;43.42;97566.97;5133229;27;20636;-58
2022/07/09 08:08:22;;;;;;;3.00;1.98;;;;;;;25.69;42.32;97563.97;5133252;27;20220;-57
2022/07/09 08:10:49;;;;;;;3.53;1.52;;;;;;;25.76;40.42;97574.75;5133253;27;20323;-56
2022/07/09 08:13:16;;;;;;;8.23;2.35;;;;;;;25.97;40.71;97573.63;5132749;27;20766;-56
2022/07/09 08:15:45;;;;;;;3.38;1.58;;;;;;;26.03;41.58;97568.16;5133188;27;20227;-57
2022/07/09 08:18:13;;;;;;;6.97;2.05;;;;;;;25.65;41.31;97565.44;5147887;27;20193;-58
2022/07/09 08:20:40;;;;;;;6.85;2.28;;;;;;;25.93;43.31;97561.56;5149656;27;20216;-57
2022/07/09 08:23:07;;;;;;;2.72;1.65;;;;;;;26.12;39.01;97558.72;5146001;27;20207;-56
2022/07/09 08:25:34;;;;;;;2.70;1.50;;;;;;;26.28;40.64;97557.38;5135183;27;20220;-56
2022/07/09 08:28:01;;;;;;;3.67;1.73;;;;;;;26.27;38.43;97552.16;5133677;27;20209;-58
2022/07/09 08:30:28;;;;;;;2.67;1.50;;;;;;;26.47;40.52;97559.09;5133223;27;20223;-56
2022/07/09 08:32:57;;;;;;;4.35;1.95;;;;;;;26.28;38.34;97557.38;5132646;27;20231;-55
2022/07/09 08:35:25;;;;;;;3.60;1.77;;;;;;;26.38;40.94;97555.00;5133034;27;20215;-58
2022/07/09 08:37:52;;;;;;;7.45;2.10;;;;;;;26.52;38.91;97553.84;5132618;27;20216;-56
2022/07/09 08:40:19;;;;;;;6.53;1.70;;;;;;;26.55;37.47;97555.28;5132965;27;20193;-57
2022/07/09 08:42:45;;;;;;;3.22;1.90;;;;;;;26.65;39.02;97547.47;5131138;27;20344;-56
2022/07/09 08:45:14;;;;;;;3.03;1.65;;;;;;;26.82;38.42;97553.19;5132727;27;20231;-57
2022/07/09 08:47:41;;;;;;;5.38;1.90;;;;;;;26.82;38.74;97550.47;5131846;27;20197;-57
2022/07/09 08:50:09;;;;;;;4.53;1.80;;;;;;;26.99;38.96;97538.84;5131758;27;20303;-55
2022/07/09 08:52:36;;;;;;;8.23;2.53;;;;;;;26.67;38.46;97550.81;5132317;27;20263;-57
2022/07/09 08:55:03;;;;;;;8.13;1.92;;;;;;;26.94;37.46;97535.13;5132308;27;20204;-57
2022/07/09 08:57:31;;;;;;;14.75;2.47;;;;;;;26.83;37.34;97535.84;5132803;27;20231;-56
2022/07/09 09:00:00;;;;;;;7.13;2.00;;;;;;;26.70;37.35;97536.78;5131954;27;20558;-55
2022/07/09 09:02:27;;;;;;;3.22;1.48;;;;;;;26.92;36.72;97539.94;5132396;27;20205;-57
2022/07/09 09:04:56;;;;;;;10.32;2.25;;;;;;;26.68;38.13;97536.16;5132603;27;20219;-57
2022/07/09 09:07:25;;;;;;;4.97;1.95;;;;;;;26.26;38.81;97536.94;5132247;27;20189;-56
2022/07/09 09:09:52;;;;;;;4.22;1.70;;;;;;;26.09;40.06;97531.19;5132267;27;20285;-57
2022/07/09 09:12:28;;;;;;;9.30;1.58;;;;;;;26.28;37.25;97532.97;5132141;27;20659;-56
2022/07/09 09:14:55;;;;;;;7.70;1.65;;;;;;;26.39;38.40;97531.44;5132641;28;20215;-56
2022/07/09 09:17:25;;;;;;;2.45;1.40;;;;;;;26.57;37.47;97531.50;5132429;28;20209;-57
2022/07/09 09:19:53;;;;;;;6.80;2.42;;;;;;;26.75;36.49;97526.06;5132658;28;20538;-54
2022/07/09 09:22:19;;;;;;;4.38;1.90;;;;;;;26.87;37.30;97527.03;5132422;27;20214;-57
2022/07/09 09:24:53;;;;;;;3.72;1.70;;;;;;;26.68;36.80;97525.31;5132280;27;20205;-57
2022/07/09 09:27:28;;;;;;;5.97;1.77;;;;;;;26.95;36.55;97523.22;5132344;28;20200;-56
2022/07/09 09:29:58;;;;;;;4.68;1.55;;;;;;;27.03;37.22;97523.72;5131304;27;20228;-55
2022/07/09 09:32:27;;;;;;;1.95;1.42;;;;;;;27.10;37.15;97518.25;5132165;28;20201;-57
2022/07/09 09:34:54;;;;;;;2.58;1.40;;;;;;;27.25;36.46;97510.53;5132080;28;20200;-58
2022/07/09 09:37:32;;;;;;;2.30;1.30;;;;;;;26.98;36.15;97514.59;5132352;28;20271;-57
2022/07/09 09:40:09;;;;;;;2.95;1.58;;;;;;;27.06;37.34;97517.03;5132025;28;20599;-55
2022/07/09 09:42:38;;;;;;;1.92;1.23;;;;;;;27.32;36.89;97511.28;5131863;28;20624;-59
2022/07/09 09:45:05;;;;;;;3.38;1.88;;;;;;;27.09;36.08;97512.00;5131858;28;20224;-56
2022/07/09 09:47:36;;;;;;;2.92;1.30;;;;;;;27.11;35.49;97503.59;5131474;27;20201;-56
2022/07/09 09:50:06;;;;;;;5.18;1.23;;;;;;;26.80;36.23;97506.41;5132014;28;20884;-58
2022/07/09 09:52:36;;;;;;;4.57;1.70;;;;;;;26.63;35.76;97506.16;5131441;27;20200;-57
2022/07/09 09:55:06;;;;;;;2.15;1.40;;;;;;;26.63;37.36;97512.44;5131916;28;20199;-57
2022/07/09 09:57:33;;;;;;;3.17;1.25;;;;;;;26.63;37.12;97498.88;5131231;27;21302;-57
2022/07/09 10:00:00;;;;;;;1.88;1.52;;;;;;;26.23;33.01;97506.50;5131951;28;20246;-57
2022/07/09 10:02:28;;;;;;;1.63;1.30;;;;;;;25.97;33.15;97501.25;5131392;27;20246;-58
2022/07/09 10:04:58;;;;;;;2.88;1.23;;;;;;;26.19;34.30;97502.59;5132357;28;20220;-57
2022/07/09 10:07:25;;;;;;;2.58;1.23;;;;;;;26.42;34.84;97498.44;5132194;27;20212;-56
2022/07/09 10:09:56;;;;;;;1.35;1.10;;;;;;;26.21;32.67;97505.91;5131915;28;20231;-56
2022/07/09 10:12:30;;;;;;;2.33;1.60;;;;;;;26.67;35.46;97491.94;5130335;28;21443;-57
2022/07/09 10:14:58;;;;;;;1.83;1.30;;;;;;;27.08;36.36;97493.19;5131892;28;20200;-55
2022/07/09 10:17:26;;;;;;;1.60;0.90;;;;;;;27.30;36.09;97496.28;5131896;27;20197;-57
2022/07/09 10:19:57;;;;;;;3.80;1.13;;;;;;;27.41;36.60;97495.50;5132300;27;20599;-58
2022/07/09 10:22:36;;;;;;;1.48;1.05;;;;;;;27.29;35.77;97487.28;5135390;27;20224;-57
2022/07/09 10:25:04;;;;;;;2.30;1.35;;;;;;;27.15;38.01;97493.94;5136032;27;20200;-57
2022/07/09 10:27:41;;;;;;;3.13;1.48;;;;;;;27.52;37.34;97486.63;5135335;27;20228;-58
2022/07/09 10:30:27;;;;;;;4.45;1.55;;;;;;;27.67;38.73;97481.59;5141068;27;20217;-57
2022/07/09 10:33:08;;;;;;;1.80;1.35;;;;;;;27.79;37.15;97485.19;5157960;27;20183;-57
2022/07/09 10:35:43;;;;;;;2.75;1.20;;;;;;;27.58;35.91;97482.97;5154912;27;20184;-57
2022/07/09 10:38:10;;;;;;;4.55;1.70;;;;;;;27.23;34.33;97474.63;5141492;27;20239;-55
2022/07/09 10:40:41;;;;;;;5.60;1.67;;;;;;;27.63;36.48;97475.78;5137558;27;20668;-57
2022/07/09 10:43:09;;;;;;;1.65;1.25;;;;;;;27.82;36.22;97478.44;5136516;27;20276;-57
2022/07/09 10:45:44;;;;;;;3.03;1.50;;;;;;;27.72;34.37;97473.56;5118451;27;20231;-58
2022/07/09 10:48:11;;;;;;;2.13;1.33;;;;;;;27.47;33.51;97468.28;5136688;27;20260;-56
2022/07/09 10:50:40;;;;;;;3.33;1.33;;;;;;;27.93;36.77;97470.34;5136408;27;20248;-56
2022/07/09 10:53:07;;;;;;;1.95;1.35;;;;;;;27.85;35.60;97469.81;5135889;27;20832;-56
2022/07/09 10:55:33;;;;;;;3.10;1.35;;;;;;;28.27;37.44;97463.31;5135313;27;20219;-54
2022/07/09 10:58:07;;;;;;;1.98;1.17;;;;;;;28.28;34.02;97453.25;5135736;27;20228;-56
2022/07/09 11:00:40;;;;;;;4.72;1.50;;;;;;;28.00;31.92;97459.34;5132779;27;20208;-58
2022/07/09 11:03:07;;;;;;;1.98;1.35;;;;;;;27.87;33.90;97454.13;5135426;27;20189;-56
2022/07/09 11:05:35;;;;;;;1.65;1.10;;;;;;;28.24;33.13;97444.75;5134526;27;20245;-56
2022/07/09 11:08:05;;;;;;;1.92;1.02;;;;;;;28.29;35.18;97442.16;5134800;27;20220;-56
2022/07/09 11:10:32;;;;;;;1.80;1.30;;;;;;;28.22;34.74;97438.72;5134293;27;20683;-55
2022/07/09 11:13:02;;;;;;;3.25;1.50;;;;;;;28.29;33.46;97450.31;5135008;27;20235;-56
2022/07/09 11:15:33;;;;;;;2.45;1.30;;;;;;;28.21;32.61;97439.78;5134420;27;20214;-55
2022/07/09 11:18:05;;;;;;;1.65;1.30;;;;;;;27.87;32.44;97437.81;5135006;27;20201;-60
2022/07/09 11:20:33;;;;;;;2.22;1.33;;;;;;;28.05;33.77;97430.41;5134530;27;20199;-56
2022/07/09 11:23:01;;;;;;;1.30;1.20;;;;;;;27.93;33.56;97426.00;5134761;27;20589;-56
2022/07/09 11:25:31;;;;;;;2.65;1.60;;;;;;;28.10;35.21;97418.84;5134486;27;20239;-56
2022/07/09 11:28:00;;;;;;;2.25;1.25;;;;;;;28.01;36.80;97422.94;5135033;27;20196;-55
2022/07/09 11:30:32;;;;;;;2.17;1.40;;;;;;;28.06;35.06;97426.59;5133390;27;20260;-57
2022/07/09 11:32:59;;;;;;;2.55;1.67;;;;;;;27.91;34.27;97422.69;5133188;27;20197;-57
2022/07/09 11:35:29;;;;;;;2.72;1.58;;;;;;;27.75;34.83;97412.47;5134169;27;20208;-58
2022/07/09 11:37:57;;;;;;;3.10;1.65;;;;;;;28.07;36.08;97416.59;5133510;27;20232;-57